Huvudsida
METAR-TAF:

METAR-TAF

Flygplatser :

Isfahan International Airport

Esfahan, Iran

latitud: 32-28N, longitud: 051-43E, höjd: 1590 m

Aktuellt väderrapport

Denna rapport gjordes för 1 timme och 3 minuter sedan, klockan 13:30 UTC
Vind 4 kt från sydost
Temperatur 15°C
Fuktighet 12%
Tryck 1025 hPa
Sikt: 8000 m

METAR: OIFM 121330Z 14004KT 8000 NSC 15/M14 Q1024 A3026

Tid: 18:03 (14:33 UTC)

Väderprognos

Denna rapport gjordes för 3 timmar och 13 minuter sedan, klockan 11:20 UTC
Prognos gäller från 12 kl. 12 UTC till 13 kl. 18 UTC
Vind 6 kt från väst
Sikt: 8000 m
Blir
från 13 kl. 02 UTC till 13 kl. 03 UTC
Sikt: 5000 m
torrdis
Temporärt
från 13 kl. 04 UTC till 13 kl. 07 UTC
Sikt: 3000 m
torrdis
Blir
från 13 kl. 08 UTC till 13 kl. 09 UTC
Sikt: 8000 m

TAF: OIFM 121120Z 1212/1318 28006KT 8000 NSC BECMG 1302/1303 5000 HZ TEMPO 1304/1307 3000 HZ BECMG 1308/1309 8000

Aktuella väderrapporter och prognoser från 4000 flygplatser (METAR- och TAF-rapporter).

De tillgängliga stationerna syns som gula och röda prickar på kartan.

För musen över prickarna för att se namnen på stationerna.

Klicka sedan för att få väderrapporter och prognoser.

För att ändra kartan: Klicka på de gröna knapparna med ett svart kors på för att zooma in; den gröna knappen med ett streck på för att zooma ut; eller på de gröna pilarna för angränsande kartor.


METAR-TAF: